State College, Georgia
Current Conditions -  °F | °C
As of 2:58 AM on Saturday 22 Nov 2014 (Local Time) from KSVN Reporting Station
Clear Clear  
Wind Chill: 44°   Ceiling: Unl
Heat Index: 48°   Visibility: 10mi
Dew Point: 43°   Wind: 8mph
Humidity: 84%   Direction: 40°NE
Pressure: 30.41"   Gusts: NA
Location:  32.0515°N, 81.0542°W
Report Text: KSVN 220758Z AUTO 04007KT 10SM CLR 09/06 A3041 RMK AO2 SLP301 T00880063
Loading
Personal Weather Stations






























Interactive Weather Map New forecast layout! Learn more

10-Day Weather Forecast

Advertisements
Track Severe Weather on mobile